sensor_id;sensor_type;location;lat;lon;timestamp;P1;durP1;ratioP1;P2;durP2;ratioP2
39738;SDS011;25422;48.286;8.484;2023-04-25T00:00:14;7.70;;;4.97;;
39738;SDS011;25422;48.286;8.484;2023-04-25T00:02:40;6.13;;;3.95;;
39738;SDS011;25422;48.286;8.484;2023-04-25T00:05:05;10.93;;;4.72;;
39738;SDS011;25422;48.286;8.484;2023-04-25T00:07:31;8.98;;;5.10;;
39738;SDS011;25422;48.286;8.484;2023-04-25T00:09:57;8.40;;;4.47;;
39738;SDS011;25422;48.286;8.484;2023-04-25T00:12:23;7.47;;;4.35;;
39738;SDS011;25422;48.286;8.484;2023-04-25T00:14:48;8.05;;;4.50;;
39738;SDS011;25422;48.286;8.484;2023-04-25T00:17:15;9.57;;;5.35;;
39738;SDS011;25422;48.286;8.484;2023-04-25T00:19:41;10.25;;;6.13;;
39738;SDS011;25422;48.286;8.484;2023-04-25T00:22:07;12.55;;;7.25;;
39738;SDS011;25422;48.286;8.484;2023-04-25T00:24:32;11.18;;;5.50;;
39738;SDS011;25422;48.286;8.484;2023-04-25T00:26:58;12.00;;;5.20;;
39738;SDS011;25422;48.286;8.484;2023-04-25T00:29:23;8.63;;;3.75;;
39738;SDS011;25422;48.286;8.484;2023-04-25T00:31:49;11.02;;;4.40;;
39738;SDS011;25422;48.286;8.484;2023-04-25T00:34:14;7.07;;;4.00;;
39738;SDS011;25422;48.286;8.484;2023-04-25T00:36:40;8.30;;;4.00;;
39738;SDS011;25422;48.286;8.484;2023-04-25T00:39:05;8.98;;;4.07;;
39738;SDS011;25422;48.286;8.484;2023-04-25T00:41:31;9.73;;;4.63;;
39738;SDS011;25422;48.286;8.484;2023-04-25T00:43:57;10.00;;;4.90;;
39738;SDS011;25422;48.286;8.484;2023-04-25T00:46:25;12.05;;;4.75;;
39738;SDS011;25422;48.286;8.484;2023-04-25T00:48:50;9.23;;;5.72;;
39738;SDS011;25422;48.286;8.484;2023-04-25T00:51:16;12.38;;;5.88;;
39738;SDS011;25422;48.286;8.484;2023-04-25T00:53:45;10.02;;;5.38;;
39738;SDS011;25422;48.286;8.484;2023-04-25T00:56:12;12.55;;;5.50;;
39738;SDS011;25422;48.286;8.484;2023-04-25T00:58:38;11.25;;;5.45;;
39738;SDS011;25422;48.286;8.484;2023-04-25T01:01:03;10.00;;;4.93;;
39738;SDS011;25422;48.286;8.484;2023-04-25T01:03:30;11.05;;;5.28;;
39738;SDS011;25422;48.286;8.484;2023-04-25T01:06:00;9.45;;;5.07;;
39738;SDS011;25422;48.286;8.484;2023-04-25T01:08:27;8.10;;;4.82;;
39738;SDS011;25422;48.286;8.484;2023-04-25T01:10:52;12.95;;;5.72;;
39738;SDS011;25422;48.286;8.484;2023-04-25T01:13:18;11.38;;;5.60;;
39738;SDS011;25422;48.286;8.484;2023-04-25T01:15:44;8.88;;;5.03;;
39738;SDS011;25422;48.286;8.484;2023-04-25T01:18:09;14.02;;;5.70;;
39738;SDS011;25422;48.286;8.484;2023-04-25T01:20:35;12.55;;;6.00;;
39738;SDS011;25422;48.286;8.484;2023-04-25T01:23:02;9.13;;;5.50;;
39738;SDS011;25422;48.286;8.484;2023-04-25T01:25:29;12.02;;;5.82;;
39738;SDS011;25422;48.286;8.484;2023-04-25T01:27:57;8.90;;;5.43;;
39738;SDS011;25422;48.286;8.484;2023-04-25T01:30:25;9.05;;;5.60;;
39738;SDS011;25422;48.286;8.484;2023-04-25T01:32:51;9.25;;;5.07;;
39738;SDS011;25422;48.286;8.484;2023-04-25T01:35:20;12.32;;;5.28;;
39738;SDS011;25422;48.286;8.484;2023-04-25T01:37:47;8.35;;;5.32;;
39738;SDS011;25422;48.286;8.484;2023-04-25T01:40:12;7.70;;;5.15;;
39738;SDS011;25422;48.286;8.484;2023-04-25T01:42:39;10.82;;;5.45;;
39738;SDS011;25422;48.286;8.484;2023-04-25T01:45:07;8.98;;;5.13;;
39738;SDS011;25422;48.286;8.484;2023-04-25T01:47:33;9.48;;;5.13;;
39738;SDS011;25422;48.286;8.484;2023-04-25T01:50:00;9.07;;;4.97;;
39738;SDS011;25422;48.286;8.484;2023-04-25T01:52:27;11.23;;;5.13;;
39738;SDS011;25422;48.286;8.484;2023-04-25T01:54:53;7.15;;;4.95;;
39738;SDS011;25422;48.286;8.484;2023-04-25T01:57:19;10.95;;;5.35;;
39738;SDS011;25422;48.286;8.484;2023-04-25T01:59:45;10.68;;;4.80;;
39738;SDS011;25422;48.286;8.484;2023-04-25T02:02:37;7.50;;;5.20;;
39738;SDS011;25422;48.286;8.484;2023-04-25T02:05:04;9.05;;;5.03;;
39738;SDS011;25422;48.286;8.484;2023-04-25T02:07:32;8.80;;;5.03;;
39738;SDS011;25422;48.286;8.484;2023-04-25T02:09:57;8.60;;;4.93;;
39738;SDS011;25422;48.286;8.484;2023-04-25T02:12:25;7.47;;;4.57;;
39738;SDS011;25422;48.286;8.484;2023-04-25T02:15:20;8.82;;;4.55;;
39738;SDS011;25422;48.286;8.484;2023-04-25T02:17:52;7.82;;;4.97;;
39738;SDS011;25422;48.286;8.484;2023-04-25T02:20:20;7.40;;;4.45;;
39738;SDS011;25422;48.286;8.484;2023-04-25T02:22:46;7.22;;;5.20;;
39738;SDS011;25422;48.286;8.484;2023-04-25T02:25:12;7.13;;;4.95;;
39738;SDS011;25422;48.286;8.484;2023-04-25T02:27:38;7.07;;;4.60;;
39738;SDS011;25422;48.286;8.484;2023-04-25T02:30:04;8.88;;;5.07;;
39738;SDS011;25422;48.286;8.484;2023-04-25T02:32:32;5.80;;;3.85;;
39738;SDS011;25422;48.286;8.484;2023-04-25T02:34:59;8.00;;;5.32;;
39738;SDS011;25422;48.286;8.484;2023-04-25T02:39:57;8.65;;;5.28;;
39738;SDS011;25422;48.286;8.484;2023-04-25T02:42:23;9.55;;;5.63;;
39738;SDS011;25422;48.286;8.484;2023-04-25T02:44:49;9.57;;;5.60;;
39738;SDS011;25422;48.286;8.484;2023-04-25T02:47:14;12.88;;;8.50;;
39738;SDS011;25422;48.286;8.484;2023-04-25T02:49:41;12.40;;;8.63;;
39738;SDS011;25422;48.286;8.484;2023-04-25T02:52:07;10.80;;;6.25;;
39738;SDS011;25422;48.286;8.484;2023-04-25T02:54:33;7.50;;;5.63;;
39738;SDS011;25422;48.286;8.484;2023-04-25T02:57:00;9.60;;;5.60;;
39738;SDS011;25422;48.286;8.484;2023-04-25T02:59:31;9.00;;;5.18;;
39738;SDS011;25422;48.286;8.484;2023-04-25T03:01:56;6.28;;;5.38;;
39738;SDS011;25422;48.286;8.484;2023-04-25T03:04:22;9.43;;;5.47;;
39738;SDS011;25422;48.286;8.484;2023-04-25T03:06:49;7.97;;;5.43;;
39738;SDS011;25422;48.286;8.484;2023-04-25T03:09:15;8.13;;;5.55;;
39738;SDS011;25422;48.286;8.484;2023-04-25T03:11:41;7.70;;;4.95;;
39738;SDS011;25422;48.286;8.484;2023-04-25T03:14:07;7.95;;;5.07;;
39738;SDS011;25422;48.286;8.484;2023-04-25T03:16:33;7.78;;;4.82;;
39738;SDS011;25422;48.286;8.484;2023-04-25T03:18:59;7.95;;;5.00;;
39738;SDS011;25422;48.286;8.484;2023-04-25T03:21:25;9.25;;;5.05;;
39738;SDS011;25422;48.286;8.484;2023-04-25T03:23:51;7.85;;;5.00;;
39738;SDS011;25422;48.286;8.484;2023-04-25T03:26:17;6.07;;;5.18;;
39738;SDS011;25422;48.286;8.484;2023-04-25T03:28:42;7.78;;;5.65;;
39738;SDS011;25422;48.286;8.484;2023-04-25T03:31:08;10.48;;;5.75;;
39738;SDS011;25422;48.286;8.484;2023-04-25T03:33:33;7.78;;;5.28;;
39738;SDS011;25422;48.286;8.484;2023-04-25T03:35:59;12.15;;;5.97;;
39738;SDS011;25422;48.286;8.484;2023-04-25T03:38:26;8.80;;;5.43;;
39738;SDS011;25422;48.286;8.484;2023-04-25T03:40:52;9.95;;;5.55;;
39738;SDS011;25422;48.286;8.484;2023-04-25T03:43:39;6.88;;;5.40;;
39738;SDS011;25422;48.286;8.484;2023-04-25T03:46:10;6.93;;;5.20;;
39738;SDS011;25422;48.286;8.484;2023-04-25T03:48:36;8.20;;;5.20;;
39738;SDS011;25422;48.286;8.484;2023-04-25T03:51:02;9.13;;;4.85;;
39738;SDS011;25422;48.286;8.484;2023-04-25T03:53:29;7.40;;;5.03;;
39738;SDS011;25422;48.286;8.484;2023-04-25T03:56:13;7.60;;;4.90;;
39738;SDS011;25422;48.286;8.484;2023-04-25T03:58:39;15.38;;;8.60;;
39738;SDS011;25422;48.286;8.484;2023-04-25T04:01:05;21.83;;;10.95;;
39738;SDS011;25422;48.286;8.484;2023-04-25T04:03:34;13.10;;;8.83;;
39738;SDS011;25422;48.286;8.484;2023-04-25T04:06:03;8.98;;;6.78;;
39738;SDS011;25422;48.286;8.484;2023-04-25T04:10:58;10.15;;;5.88;;
39738;SDS011;25422;48.286;8.484;2023-04-25T04:13:26;10.70;;;6.85;;
39738;SDS011;25422;48.286;8.484;2023-04-25T04:15:52;12.48;;;6.50;;
39738;SDS011;25422;48.286;8.484;2023-04-25T04:18:18;10.68;;;6.60;;
39738;SDS011;25422;48.286;8.484;2023-04-25T04:20:44;8.75;;;6.30;;
39738;SDS011;25422;48.286;8.484;2023-04-25T04:23:10;11.98;;;6.93;;
39738;SDS011;25422;48.286;8.484;2023-04-25T04:25:36;10.30;;;7.05;;
39738;SDS011;25422;48.286;8.484;2023-04-25T04:28:17;9.55;;;6.03;;
39738;SDS011;25422;48.286;8.484;2023-04-25T04:31:03;14.10;;;6.18;;
39738;SDS011;25422;48.286;8.484;2023-04-25T04:33:29;9.73;;;5.88;;
39738;SDS011;25422;48.286;8.484;2023-04-25T04:36:00;10.48;;;6.03;;
39738;SDS011;25422;48.286;8.484;2023-04-25T04:38:26;9.57;;;6.55;;
39738;SDS011;25422;48.286;8.484;2023-04-25T04:40:55;14.18;;;6.55;;
39738;SDS011;25422;48.286;8.484;2023-04-25T04:43:31;10.68;;;6.35;;
39738;SDS011;25422;48.286;8.484;2023-04-25T04:46:06;9.82;;;6.45;;
39738;SDS011;25422;48.286;8.484;2023-04-25T04:48:41;11.23;;;6.68;;
39738;SDS011;25422;48.286;8.484;2023-04-25T04:51:25;10.63;;;6.03;;
39738;SDS011;25422;48.286;8.484;2023-04-25T04:53:53;11.10;;;6.30;;
39738;SDS011;25422;48.286;8.484;2023-04-25T04:56:38;11.15;;;6.75;;
39738;SDS011;25422;48.286;8.484;2023-04-25T04:59:15;10.93;;;7.03;;
39738;SDS011;25422;48.286;8.484;2023-04-25T05:01:59;17.52;;;9.50;;
39738;SDS011;25422;48.286;8.484;2023-04-25T05:04:43;15.02;;;11.20;;
39738;SDS011;25422;48.286;8.484;2023-04-25T05:07:38;13.98;;;8.98;;
39738;SDS011;25422;48.286;8.484;2023-04-25T05:10:08;11.32;;;9.38;;
39738;SDS011;25422;48.286;8.484;2023-04-25T05:12:57;14.75;;;9.82;;
39738;SDS011;25422;48.286;8.484;2023-04-25T05:16:01;13.05;;;9.75;;
39738;SDS011;25422;48.286;8.484;2023-04-25T05:18:39;10.50;;;7.93;;
39738;SDS011;25422;48.286;8.484;2023-04-25T05:21:20;12.57;;;7.55;;
39738;SDS011;25422;48.286;8.484;2023-04-25T05:24:05;10.85;;;6.53;;
39738;SDS011;25422;48.286;8.484;2023-04-25T05:27:03;7.55;;;5.60;;
39738;SDS011;25422;48.286;8.484;2023-04-25T05:29:47;8.20;;;5.63;;
39738;SDS011;25422;48.286;8.484;2023-04-25T05:32:45;9.20;;;5.57;;
39738;SDS011;25422;48.286;8.484;2023-04-25T05:35:12;7.93;;;5.30;;
39738;SDS011;25422;48.286;8.484;2023-04-25T05:37:45;15.48;;;6.80;;
39738;SDS011;25422;48.286;8.484;2023-04-25T05:40:13;11.10;;;6.50;;
39738;SDS011;25422;48.286;8.484;2023-04-25T05:42:57;11.88;;;7.35;;
39738;SDS011;25422;48.286;8.484;2023-04-25T05:45:43;12.82;;;8.18;;
39738;SDS011;25422;48.286;8.484;2023-04-25T05:48:40;11.65;;;7.75;;
39738;SDS011;25422;48.286;8.484;2023-04-25T05:51:16;13.18;;;8.93;;
39738;SDS011;25422;48.286;8.484;2023-04-25T05:53:57;13.60;;;10.57;;
39738;SDS011;25422;48.286;8.484;2023-04-25T05:56:22;11.85;;;7.78;;
39738;SDS011;25422;48.286;8.484;2023-04-25T05:58:51;14.02;;;7.93;;
39738;SDS011;25422;48.286;8.484;2023-04-25T06:01:16;11.07;;;7.13;;
39738;SDS011;25422;48.286;8.484;2023-04-25T06:03:43;8.55;;;6.18;;
39738;SDS011;25422;48.286;8.484;2023-04-25T06:06:09;8.45;;;5.90;;
39738;SDS011;25422;48.286;8.484;2023-04-25T06:08:36;8.60;;;6.75;;
39738;SDS011;25422;48.286;8.484;2023-04-25T06:11:02;15.35;;;6.70;;
39738;SDS011;25422;48.286;8.484;2023-04-25T06:13:28;13.10;;;7.40;;
39738;SDS011;25422;48.286;8.484;2023-04-25T06:15:54;12.23;;;6.13;;
39738;SDS011;25422;48.286;8.484;2023-04-25T06:18:20;6.93;;;5.60;;
39738;SDS011;25422;48.286;8.484;2023-04-25T06:20:45;8.50;;;6.03;;
39738;SDS011;25422;48.286;8.484;2023-04-25T06:23:11;7.20;;;5.28;;
39738;SDS011;25422;48.286;8.484;2023-04-25T06:25:51;7.80;;;5.35;;
39738;SDS011;25422;48.286;8.484;2023-04-25T06:28:16;8.63;;;5.63;;
39738;SDS011;25422;48.286;8.484;2023-04-25T06:30:43;8.65;;;5.40;;
39738;SDS011;25422;48.286;8.484;2023-04-25T06:33:12;9.32;;;5.20;;
39738;SDS011;25422;48.286;8.484;2023-04-25T06:35:39;10.38;;;5.57;;
39738;SDS011;25422;48.286;8.484;2023-04-25T06:38:06;9.80;;;5.75;;
39738;SDS011;25422;48.286;8.484;2023-04-25T06:40:31;9.40;;;5.93;;
39738;SDS011;25422;48.286;8.484;2023-04-25T06:42:57;8.32;;;6.05;;
39738;SDS011;25422;48.286;8.484;2023-04-25T06:45:44;9.73;;;6.65;;
39738;SDS011;25422;48.286;8.484;2023-04-25T06:48:09;11.48;;;7.20;;
39738;SDS011;25422;48.286;8.484;2023-04-25T06:50:36;10.80;;;6.28;;
39738;SDS011;25422;48.286;8.484;2023-04-25T06:53:01;9.80;;;5.90;;
39738;SDS011;25422;48.286;8.484;2023-04-25T06:55:28;13.48;;;5.68;;
39738;SDS011;25422;48.286;8.484;2023-04-25T06:58:07;10.45;;;5.72;;
39738;SDS011;25422;48.286;8.484;2023-04-25T07:00:50;7.80;;;5.57;;
39738;SDS011;25422;48.286;8.484;2023-04-25T07:03:18;8.88;;;5.70;;
39738;SDS011;25422;48.286;8.484;2023-04-25T07:05:43;11.95;;;6.18;;
39738;SDS011;25422;48.286;8.484;2023-04-25T07:08:11;10.20;;;5.97;;
39738;SDS011;25422;48.286;8.484;2023-04-25T07:10:36;11.75;;;6.38;;
39738;SDS011;25422;48.286;8.484;2023-04-25T07:13:02;10.98;;;6.07;;
39738;SDS011;25422;48.286;8.484;2023-04-25T07:15:29;8.70;;;5.47;;
39738;SDS011;25422;48.286;8.484;2023-04-25T07:17:55;13.65;;;5.95;;
39738;SDS011;25422;48.286;8.484;2023-04-25T07:20:21;12.32;;;8.93;;
39738;SDS011;25422;48.286;8.484;2023-04-25T07:22:46;20.17;;;12.07;;
39738;SDS011;25422;48.286;8.484;2023-04-25T07:25:12;3.38;;;2.17;;
39738;SDS011;25422;48.286;8.484;2023-04-25T07:27:37;7.95;;;2.92;;
39738;SDS011;25422;48.286;8.484;2023-04-25T07:30:12;4.78;;;2.10;;
39738;SDS011;25422;48.286;8.484;2023-04-25T07:32:38;2.35;;;1.40;;
39738;SDS011;25422;48.286;8.484;2023-04-25T07:35:04;2.90;;;1.45;;
39738;SDS011;25422;48.286;8.484;2023-04-25T07:37:32;2.55;;;1.10;;
39738;SDS011;25422;48.286;8.484;2023-04-25T07:40:03;1.08;;;1.00;;
39738;SDS011;25422;48.286;8.484;2023-04-25T07:42:29;1.00;;;0.95;;
39738;SDS011;25422;48.286;8.484;2023-04-25T07:44:55;0.90;;;0.90;;
39738;SDS011;25422;48.286;8.484;2023-04-25T07:47:21;1.52;;;1.20;;
39738;SDS011;25422;48.286;8.484;2023-04-25T07:49:46;1.30;;;1.20;;
39738;SDS011;25422;48.286;8.484;2023-04-25T07:52:13;1.50;;;1.27;;
39738;SDS011;25422;48.286;8.484;2023-04-25T07:54:44;1.00;;;1.00;;
39738;SDS011;25422;48.286;8.484;2023-04-25T07:57:15;1.27;;;1.00;;
39738;SDS011;25422;48.286;8.484;2023-04-25T07:59:43;1.73;;;1.33;;
39738;SDS011;25422;48.286;8.484;2023-04-25T08:02:09;1.25;;;1.13;;
39738;SDS011;25422;48.286;8.484;2023-04-25T08:04:35;1.20;;;1.10;;
39738;SDS011;25422;48.286;8.484;2023-04-25T08:07:03;3.72;;;1.20;;
39738;SDS011;25422;48.286;8.484;2023-04-25T08:09:34;1.25;;;1.00;;
39738;SDS011;25422;48.286;8.484;2023-04-25T08:12:03;0.88;;;0.88;;
39738;SDS011;25422;48.286;8.484;2023-04-25T08:14:31;0.60;;;0.60;;
39738;SDS011;25422;48.286;8.484;2023-04-25T08:17:02;1.17;;;0.70;;
39738;SDS011;25422;48.286;8.484;2023-04-25T08:19:30;1.95;;;0.70;;
39738;SDS011;25422;48.286;8.484;2023-04-25T08:21:56;1.00;;;0.90;;
39738;SDS011;25422;48.286;8.484;2023-04-25T08:24:28;0.82;;;0.70;;
39738;SDS011;25422;48.286;8.484;2023-04-25T08:26:53;0.63;;;0.63;;
39738;SDS011;25422;48.286;8.484;2023-04-25T08:29:21;0.55;;;0.55;;
39738;SDS011;25422;48.286;8.484;2023-04-25T08:31:49;1.60;;;0.70;;
39738;SDS011;25422;48.286;8.484;2023-04-25T08:34:15;0.65;;;0.63;;
39738;SDS011;25422;48.286;8.484;2023-04-25T08:36:43;2.85;;;1.55;;
39738;SDS011;25422;48.286;8.484;2023-04-25T08:39:37;0.90;;;0.70;;
39738;SDS011;25422;48.286;8.484;2023-04-25T08:42:26;0.60;;;0.60;;
39738;SDS011;25422;48.286;8.484;2023-04-25T08:44:53;0.60;;;0.60;;
39738;SDS011;25422;48.286;8.484;2023-04-25T08:47:23;0.77;;;0.77;;
39738;SDS011;25422;48.286;8.484;2023-04-25T08:49:55;1.15;;;0.93;;
39738;SDS011;25422;48.286;8.484;2023-04-25T08:52:22;0.80;;;0.70;;
39738;SDS011;25422;48.286;8.484;2023-04-25T08:54:50;4.40;;;1.73;;
39738;SDS011;25422;48.286;8.484;2023-04-25T08:57:17;28.23;;;15.98;;
39738;SDS011;25422;48.286;8.484;2023-04-25T08:59:45;3.45;;;1.40;;
39738;SDS011;25422;48.286;8.484;2023-04-25T09:02:11;5.53;;;3.85;;
39738;SDS011;25422;48.286;8.484;2023-04-25T09:04:44;4.68;;;2.78;;
39738;SDS011;25422;48.286;8.484;2023-04-25T09:07:10;1.35;;;1.30;;
39738;SDS011;25422;48.286;8.484;2023-04-25T09:09:35;1.00;;;1.00;;
39738;SDS011;25422;48.286;8.484;2023-04-25T09:12:01;0.85;;;0.85;;
39738;SDS011;25422;48.286;8.484;2023-04-25T09:14:27;1.17;;;1.15;;
39738;SDS011;25422;48.286;8.484;2023-04-25T09:17:03;0.50;;;0.50;;
39738;SDS011;25422;48.286;8.484;2023-04-25T09:19:52;1.35;;;1.25;;
39738;SDS011;25422;48.286;8.484;2023-04-25T09:22:36;1.77;;;0.80;;
39738;SDS011;25422;48.286;8.484;2023-04-25T09:25:03;0.70;;;0.70;;
39738;SDS011;25422;48.286;8.484;2023-04-25T09:27:33;2.08;;;1.77;;
39738;SDS011;25422;48.286;8.484;2023-04-25T09:30:09;1.40;;;1.30;;
39738;SDS011;25422;48.286;8.484;2023-04-25T09:32:50;0.80;;;0.80;;
39738;SDS011;25422;48.286;8.484;2023-04-25T09:35:24;1.85;;;0.70;;
39738;SDS011;25422;48.286;8.484;2023-04-25T09:37:56;2.78;;;1.00;;
39738;SDS011;25422;48.286;8.484;2023-04-25T09:40:41;0.75;;;0.75;;
39738;SDS011;25422;48.286;8.484;2023-04-25T09:43:24;0.65;;;0.65;;
39738;SDS011;25422;48.286;8.484;2023-04-25T09:45:52;0.73;;;0.73;;
39738;SDS011;25422;48.286;8.484;2023-04-25T09:48:22;0.80;;;0.80;;
39738;SDS011;25422;48.286;8.484;2023-04-25T09:51:05;0.88;;;0.80;;
39738;SDS011;25422;48.286;8.484;2023-04-25T09:53:34;0.60;;;0.60;;
39738;SDS011;25422;48.286;8.484;2023-04-25T09:56:23;0.60;;;0.60;;
39738;SDS011;25422;48.286;8.484;2023-04-25T09:58:50;0.50;;;0.50;;
39738;SDS011;25422;48.286;8.484;2023-04-25T10:01:18;1.63;;;0.70;;
39738;SDS011;25422;48.286;8.484;2023-04-25T10:03:59;0.70;;;0.70;;
39738;SDS011;25422;48.286;8.484;2023-04-25T10:06:38;0.60;;;0.60;;
39738;SDS011;25422;48.286;8.484;2023-04-25T10:09:08;0.75;;;0.65;;
39738;SDS011;25422;48.286;8.484;2023-04-25T10:11:33;0.73;;;0.70;;
39738;SDS011;25422;48.286;8.484;2023-04-25T10:14:00;0.80;;;0.80;;
39738;SDS011;25422;48.286;8.484;2023-04-25T10:16:26;0.70;;;0.70;;
39738;SDS011;25422;48.286;8.484;2023-04-25T10:18:53;0.70;;;0.70;;
39738;SDS011;25422;48.286;8.484;2023-04-25T10:21:19;1.52;;;0.90;;
39738;SDS011;25422;48.286;8.484;2023-04-25T10:23:47;1.00;;;1.00;;
39738;SDS011;25422;48.286;8.484;2023-04-25T10:26:14;0.95;;;0.80;;
39738;SDS011;25422;48.286;8.484;2023-04-25T10:31:22;0.82;;;0.82;;
39738;SDS011;25422;48.286;8.484;2023-04-25T10:33:48;1.15;;;1.05;;
39738;SDS011;25422;48.286;8.484;2023-04-25T10:36:14;1.40;;;1.25;;
39738;SDS011;25422;48.286;8.484;2023-04-25T10:38:42;0.93;;;0.93;;
39738;SDS011;25422;48.286;8.484;2023-04-25T10:41:10;1.38;;;1.08;;
39738;SDS011;25422;48.286;8.484;2023-04-25T10:43:37;1.83;;;1.20;;
39738;SDS011;25422;48.286;8.484;2023-04-25T10:46:16;1.17;;;1.10;;
39738;SDS011;25422;48.286;8.484;2023-04-25T10:48:49;1.00;;;1.00;;
39738;SDS011;25422;48.286;8.484;2023-04-25T10:51:29;1.25;;;1.15;;
39738;SDS011;25422;48.286;8.484;2023-04-25T10:54:03;1.30;;;1.20;;
39738;SDS011;25422;48.286;8.484;2023-04-25T10:56:33;1.63;;;1.10;;
39738;SDS011;25422;48.286;8.484;2023-04-25T10:59:09;0.93;;;0.93;;
39738;SDS011;25422;48.286;8.484;2023-04-25T11:01:37;1.17;;;1.13;;
39738;SDS011;25422;48.286;8.484;2023-04-25T11:04:19;3.22;;;1.00;;
39738;SDS011;25422;48.286;8.484;2023-04-25T11:09:25;0.80;;;0.80;;
39738;SDS011;25422;48.286;8.484;2023-04-25T11:11:54;0.63;;;0.63;;
39738;SDS011;25422;48.286;8.484;2023-04-25T11:14:20;2.05;;;0.90;;
39738;SDS011;25422;48.286;8.484;2023-04-25T11:16:46;0.77;;;0.60;;
39738;SDS011;25422;48.286;8.484;2023-04-25T11:19:12;0.82;;;0.82;;
39738;SDS011;25422;48.286;8.484;2023-04-25T11:21:37;0.90;;;0.90;;
39738;SDS011;25422;48.286;8.484;2023-04-25T11:24:03;0.70;;;0.70;;
39738;SDS011;25422;48.286;8.484;2023-04-25T11:26:29;0.82;;;0.73;;
39738;SDS011;25422;48.286;8.484;2023-04-25T11:28:58;0.68;;;0.68;;
39738;SDS011;25422;48.286;8.484;2023-04-25T11:31:25;0.70;;;0.70;;
39738;SDS011;25422;48.286;8.484;2023-04-25T11:33:52;0.93;;;0.73;;
39738;SDS011;25422;48.286;8.484;2023-04-25T11:36:19;1.67;;;1.00;;
39738;SDS011;25422;48.286;8.484;2023-04-25T11:38:44;1.10;;;1.00;;
39738;SDS011;25422;48.286;8.484;2023-04-25T11:41:10;1.65;;;1.25;;
39738;SDS011;25422;48.286;8.484;2023-04-25T11:43:36;1.35;;;1.10;;
39738;SDS011;25422;48.286;8.484;2023-04-25T11:46:06;1.33;;;1.20;;
39738;SDS011;25422;48.286;8.484;2023-04-25T11:48:36;1.70;;;1.60;;
39738;SDS011;25422;48.286;8.484;2023-04-25T11:51:05;1.60;;;1.50;;
39738;SDS011;25422;48.286;8.484;2023-04-25T11:53:30;1.55;;;1.40;;
39738;SDS011;25422;48.286;8.484;2023-04-25T11:55:56;1.70;;;1.60;;
39738;SDS011;25422;48.286;8.484;2023-04-25T11:58:21;1.73;;;1.35;;
39738;SDS011;25422;48.286;8.484;2023-04-25T12:00:46;1.52;;;1.42;;
39738;SDS011;25422;48.286;8.484;2023-04-25T12:03:12;1.30;;;1.20;;
39738;SDS011;25422;48.286;8.484;2023-04-25T12:05:37;1.60;;;1.50;;
39738;SDS011;25422;48.286;8.484;2023-04-25T12:08:14;2.85;;;1.10;;
39738;SDS011;25422;48.286;8.484;2023-04-25T12:10:45;1.33;;;1.23;;
39738;SDS011;25422;48.286;8.484;2023-04-25T12:13:24;1.30;;;1.20;;
39738;SDS011;25422;48.286;8.484;2023-04-25T12:15:56;1.10;;;1.00;;
39738;SDS011;25422;48.286;8.484;2023-04-25T12:18:23;1.30;;;1.07;;
39738;SDS011;25422;48.286;8.484;2023-04-25T12:20:52;1.92;;;1.10;;
39738;SDS011;25422;48.286;8.484;2023-04-25T12:23:25;1.30;;;1.10;;
39738;SDS011;25422;48.286;8.484;2023-04-25T12:25:52;1.25;;;1.15;;
39738;SDS011;25422;48.286;8.484;2023-04-25T12:28:18;1.40;;;1.30;;
39738;SDS011;25422;48.286;8.484;2023-04-25T12:30:57;1.33;;;1.00;;
39738;SDS011;25422;48.286;8.484;2023-04-25T12:33:25;0.98;;;0.98;;
39738;SDS011;25422;48.286;8.484;2023-04-25T12:35:52;2.40;;;2.10;;
39738;SDS011;25422;48.286;8.484;2023-04-25T12:38:28;2.20;;;2.00;;
39738;SDS011;25422;48.286;8.484;2023-04-25T12:40:55;1.75;;;1.23;;
39738;SDS011;25422;48.286;8.484;2023-04-25T12:43:21;2.42;;;1.20;;
39738;SDS011;25422;48.286;8.484;2023-04-25T12:45:47;1.02;;;1.00;;
39738;SDS011;25422;48.286;8.484;2023-04-25T12:48:17;1.40;;;1.30;;
39738;SDS011;25422;48.286;8.484;2023-04-25T12:50:43;1.55;;;1.30;;
39738;SDS011;25422;48.286;8.484;2023-04-25T12:53:09;1.90;;;1.40;;
39738;SDS011;25422;48.286;8.484;2023-04-25T12:55:35;1.63;;;1.40;;
39738;SDS011;25422;48.286;8.484;2023-04-25T12:58:01;1.70;;;1.55;;
39738;SDS011;25422;48.286;8.484;2023-04-25T13:00:27;2.25;;;1.40;;
39738;SDS011;25422;48.286;8.484;2023-04-25T13:02:52;2.20;;;1.50;;
39738;SDS011;25422;48.286;8.484;2023-04-25T13:05:17;1.70;;;1.60;;
39738;SDS011;25422;48.286;8.484;2023-04-25T13:07:43;1.83;;;1.42;;
39738;SDS011;25422;48.286;8.484;2023-04-25T13:10:08;1.70;;;1.60;;
39738;SDS011;25422;48.286;8.484;2023-04-25T13:12:33;1.60;;;1.50;;
39738;SDS011;25422;48.286;8.484;2023-04-25T13:14:59;1.55;;;1.45;;
39738;SDS011;25422;48.286;8.484;2023-04-25T13:17:24;1.50;;;1.40;;
39738;SDS011;25422;48.286;8.484;2023-04-25T13:19:50;3.30;;;1.40;;
39738;SDS011;25422;48.286;8.484;2023-04-25T13:22:15;1.90;;;1.70;;
39738;SDS011;25422;48.286;8.484;2023-04-25T13:24:42;3.83;;;1.67;;
39738;SDS011;25422;48.286;8.484;2023-04-25T13:27:08;2.13;;;1.92;;
39738;SDS011;25422;48.286;8.484;2023-04-25T13:29:33;1.80;;;1.70;;
39738;SDS011;25422;48.286;8.484;2023-04-25T13:32:00;1.65;;;1.55;;
39738;SDS011;25422;48.286;8.484;2023-04-25T13:34:27;2.40;;;1.85;;
39738;SDS011;25422;48.286;8.484;2023-04-25T13:36:53;2.92;;;1.70;;
39738;SDS011;25422;48.286;8.484;2023-04-25T13:39:18;1.98;;;1.52;;
39738;SDS011;25422;48.286;8.484;2023-04-25T13:41:44;2.10;;;1.60;;
39738;SDS011;25422;48.286;8.484;2023-04-25T13:44:09;2.42;;;2.05;;
39738;SDS011;25422;48.286;8.484;2023-04-25T13:46:35;4.28;;;2.10;;
39738;SDS011;25422;48.286;8.484;2023-04-25T13:49:02;2.33;;;1.90;;
39738;SDS011;25422;48.286;8.484;2023-04-25T13:51:28;3.47;;;2.30;;
39738;SDS011;25422;48.286;8.484;2023-04-25T13:53:53;2.50;;;2.30;;
39738;SDS011;25422;48.286;8.484;2023-04-25T13:56:19;5.50;;;4.55;;
39738;SDS011;25422;48.286;8.484;2023-04-25T13:58:45;2.25;;;2.05;;
39738;SDS011;25422;48.286;8.484;2023-04-25T14:01:11;2.13;;;1.75;;
39738;SDS011;25422;48.286;8.484;2023-04-25T14:03:36;2.40;;;1.73;;
39738;SDS011;25422;48.286;8.484;2023-04-25T14:06:01;1.80;;;1.70;;
39738;SDS011;25422;48.286;8.484;2023-04-25T14:08:27;4.25;;;2.25;;
39738;SDS011;25422;48.286;8.484;2023-04-25T14:10:53;2.35;;;1.80;;
39738;SDS011;25422;48.286;8.484;2023-04-25T14:13:19;3.42;;;1.50;;
39738;SDS011;25422;48.286;8.484;2023-04-25T14:15:44;2.13;;;1.90;;
39738;SDS011;25422;48.286;8.484;2023-04-25T14:18:10;3.05;;;2.20;;
39738;SDS011;25422;48.286;8.484;2023-04-25T14:20:35;3.00;;;2.40;;
39738;SDS011;25422;48.286;8.484;2023-04-25T14:23:01;2.50;;;2.30;;
39738;SDS011;25422;48.286;8.484;2023-04-25T14:25:27;4.57;;;2.60;;
39738;SDS011;25422;48.286;8.484;2023-04-25T14:27:52;2.22;;;2.00;;
39738;SDS011;25422;48.286;8.484;2023-04-25T14:30:18;3.10;;;2.80;;
39738;SDS011;25422;48.286;8.484;2023-04-25T14:32:44;2.83;;;2.22;;
39738;SDS011;25422;48.286;8.484;2023-04-25T14:35:10;2.55;;;2.00;;
39738;SDS011;25422;48.286;8.484;2023-04-25T14:37:36;2.65;;;2.42;;
39738;SDS011;25422;48.286;8.484;2023-04-25T14:40:02;3.20;;;2.90;;
39738;SDS011;25422;48.286;8.484;2023-04-25T14:42:28;4.18;;;3.35;;
39738;SDS011;25422;48.286;8.484;2023-04-25T14:44:53;5.70;;;3.40;;
39738;SDS011;25422;48.286;8.484;2023-04-25T14:47:19;4.40;;;3.25;;
39738;SDS011;25422;48.286;8.484;2023-04-25T14:49:44;5.90;;;4.32;;
39738;SDS011;25422;48.286;8.484;2023-04-25T14:52:16;4.75;;;3.75;;
39738;SDS011;25422;48.286;8.484;2023-04-25T14:54:41;4.50;;;4.10;;
39738;SDS011;25422;48.286;8.484;2023-04-25T14:57:07;6.75;;;3.35;;
39738;SDS011;25422;48.286;8.484;2023-04-25T14:59:32;4.68;;;3.72;;
39738;SDS011;25422;48.286;8.484;2023-04-25T15:01:58;4.18;;;3.78;;
39738;SDS011;25422;48.286;8.484;2023-04-25T15:04:23;4.45;;;2.85;;
39738;SDS011;25422;48.286;8.484;2023-04-25T15:06:49;4.95;;;3.60;;